Terminal Aerodrome Forecast
Issued by NWS Charleston, WV

Home | Current Version | Previous Version | Text Only | Print | Product List | Glossary On
Versions: 1 2 3 4 5 6 7 8 9 10 11 12 13 14 15 16 17 18 19 20 21 22 23 24 25 26
000
FTUS41 KRLX 231130
TAFPKB
TAF
KPKB 231130Z 2312/2412 24010G19KT P6SM SCT060
     FM231300 23012G22KT P6SM BKN050
     FM231500 23015G28KT P6SM BKN035
     FM231800 24015G28KT P6SM BKN024
     FM232300 25013G24KT P6SM OVC018
     FM240500 26010KT P6SM OVC018
      AMD NOT SKED=

USA.gov is the U.S. government's official web portal to all federal, state and local government web resources and services.